Time;durP1;ratioP1;P1;durP2;ratioP2;P2;SDS_P1;SDS_P2;PMS_P1;PMS_P2;Temp;Humidity;BMP_temperature;BMP_pressure;BME280_temperature;BME280_humidity;BME280_pressure;Samples;Min_cycle;Max_cycle;Signal;HPM_P1;HPM_P2
2022/10/21 00:01:10;;;;;;;7.50;4.50;;;;;;;-141.97;62.69;47546.00;4978794;28;20160;-80
2022/10/21 00:03:43;;;;;;;10.17;4.90;;;;;;;-141.97;62.66;47538.28;4994459;28;20167;-80
2022/10/21 00:06:11;;;;;;;8.73;5.50;;;;;;;-141.97;63.10;47582.50;4995761;28;20163;-81
2022/10/21 00:08:41;;;;;;;10.03;5.40;;;;;;;-141.97;63.71;47580.59;4995169;28;20164;-80
2022/10/21 00:11:12;;;;;;;9.90;5.47;;;;;;;-141.97;64.21;47540.22;4995886;28;20632;-79
2022/10/21 00:13:44;;;;;;;10.77;5.17;;;;;;;-141.97;64.16;47569.06;4976156;28;20379;-80
2022/10/21 00:16:16;;;;;;;10.20;5.37;;;;;;;-141.97;64.51;47551.75;4974711;28;20172;-80
2022/10/21 00:18:43;;;;;;;10.33;5.40;;;;;;;-141.97;64.58;47590.19;4976114;28;20201;-80
2022/10/21 00:21:15;;;;;;;14.00;5.67;;;;;;;-141.97;64.83;47563.28;4976105;28;20160;-80
2022/10/21 00:23:43;;;;;;;10.87;5.50;;;;;;;-141.97;65.17;47542.16;4975893;28;20161;-81
2022/10/21 00:26:14;;;;;;;9.77;5.47;;;;;;;-141.97;65.55;47580.59;4975836;28;20168;-80
2022/10/21 00:28:43;;;;;;;10.23;5.60;;;;;;;-141.97;65.73;47565.22;4975823;28;20199;-81
2022/10/21 00:31:14;;;;;;;12.10;5.50;;;;;;;-141.97;65.83;47682.47;4976083;28;20651;-79
2022/10/21 00:33:43;;;;;;;11.77;5.30;;;;;;;-141.97;66.13;47517.16;4976117;28;20192;-80
2022/10/21 00:36:14;;;;;;;11.37;5.87;;;;;;;-141.97;66.88;47519.06;4975602;28;20243;-79
2022/10/21 00:38:47;;;;;;;8.97;5.63;;;;;;;-141.97;67.21;47565.22;4975859;28;20163;-80
2022/10/21 00:41:16;;;;;;;13.00;5.93;;;;;;;-141.97;67.18;47542.16;4975297;28;20156;-80
2022/10/21 00:43:54;;;;;;;9.03;5.67;;;;;;;-141.97;67.33;47549.84;4975358;28;20254;-80
2022/10/21 00:46:28;;;;;;;9.87;5.60;;;;;;;-141.97;67.29;47538.28;4975270;28;20628;-80
2022/10/21 00:48:58;;;;;;;11.07;5.87;;;;;;;-141.97;67.47;47572.91;4975078;28;20175;-80
2022/10/21 00:51:24;;;;;;;10.30;5.57;;;;;;;-141.97;67.53;47546.00;4974801;28;20164;-80
2022/10/21 00:53:50;;;;;;;11.73;5.70;;;;;;;-141.97;67.58;47540.22;4973860;28;20671;-80
2022/10/21 00:56:23;;;;;;;10.83;5.50;;;;;;;-141.97;67.46;47563.28;4974669;28;20582;-81
2022/10/21 00:58:50;;;;;;;11.30;5.40;;;;;;;-141.97;67.69;47563.28;4974717;28;20184;-80
2022/10/21 01:01:17;;;;;;;10.77;5.60;;;;;;;-141.97;67.09;47570.97;4974788;28;20163;-81
2022/10/21 01:03:49;;;;;;;14.53;5.37;;;;;;;-141.97;67.79;47524.84;4974796;28;20207;-80
2022/10/21 01:06:20;;;;;;;10.97;5.37;;;;;;;-141.97;67.19;47570.97;4974896;28;20184;-80
2022/10/21 01:08:47;;;;;;;11.73;5.73;;;;;;;-141.97;66.96;47559.44;4974567;28;20171;-80
2022/10/21 01:11:20;;;;;;;12.13;5.20;;;;;;;-141.97;67.11;47557.53;4975185;28;20554;-80
2022/10/21 01:14:17;;;;;;;9.27;5.63;;;;;;;-141.97;66.97;47549.84;4996515;28;20250;-80
2022/10/21 01:16:53;;;;;;;9.00;5.53;;;;;;;-141.97;66.74;47551.75;4915112;29;20285;-79
2022/10/21 01:19:47;;;;;;;14.47;5.63;;;;;;;-141.97;66.76;47546.00;4914475;29;20197;-80
2022/10/21 01:22:53;;;;;;;10.40;5.57;;;;;;;-141.97;66.68;47574.81;4914407;29;20166;-79
2022/10/21 01:25:43;;;;;;;10.83;5.73;;;;;;;-141.97;67.08;47588.28;4914725;29;20170;-80
2022/10/21 01:28:49;;;;;;;10.90;6.10;;;;;;;-141.97;67.18;47567.13;4914489;29;20205;-79
2022/10/21 01:31:24;;;;;;;10.30;5.97;;;;;;;-141.97;67.04;47561.38;4877360;29;20182;-80
2022/10/21 01:34:13;;;;;;;11.87;5.80;;;;;;;-141.97;66.90;47567.13;4876913;29;20202;-80
2022/10/21 01:36:50;;;;;;;11.37;5.60;;;;;;;-141.97;67.64;47553.69;4876800;29;20227;-79
2022/10/21 01:39:31;;;;;;;10.03;6.23;;;;;;;-141.97;67.41;47615.19;4877168;29;20163;-79
2022/10/21 01:42:02;;;;;;;13.00;5.90;;;;;;;-141.97;67.36;47555.59;4876446;29;20215;-79
2022/10/21 01:44:35;;;;;;;11.77;5.93;;;;;;;-141.97;67.32;47549.84;4876573;29;20189;-79
2022/10/21 01:47:20;;;;;;;11.23;5.87;;;;;;;-141.97;67.52;47628.63;4877016;29;20573;-79
2022/10/21 01:49:56;;;;;;;10.80;5.90;;;;;;;-141.97;67.77;47536.38;4876905;29;20601;-79
2022/10/21 01:52:22;;;;;;;11.60;5.70;;;;;;;-141.97;68.10;47586.34;4887999;29;20237;-80
2022/10/21 01:55:00;;;;;;;9.83;6.00;;;;;;;-141.97;67.85;47538.28;4933435;29;20196;-79
2022/10/21 01:57:32;;;;;;;11.33;5.73;;;;;;;-141.97;67.90;47536.38;4933658;29;20169;-80
2022/10/21 01:59:59;;;;;;;11.70;6.40;;;;;;;-141.97;67.65;47619.03;4933217;29;20173;-80
2022/10/21 02:02:28;;;;;;;11.50;5.93;;;;;;;-141.97;68.67;47546.00;4965881;28;20187;-80
2022/10/21 02:04:56;;;;;;;11.97;6.30;;;;;;;-141.97;69.95;47567.13;4991053;28;20179;-80
2022/10/21 02:07:25;;;;;;;15.23;6.50;;;;;;;-141.97;70.50;47574.81;4993462;28;20168;-80
2022/10/21 02:09:53;;;;;;;14.47;7.00;;;;;;;-141.97;70.50;47561.38;4993128;28;20171;-82
2022/10/21 02:12:24;;;;;;;14.60;7.20;;;;;;;-141.97;71.28;47542.16;4993304;28;20231;-80
2022/10/21 02:14:57;;;;;;;14.30;7.13;;;;;;;-141.97;71.11;47559.44;4993063;28;20234;-81
2022/10/21 02:17:28;;;;;;;14.00;7.57;;;;;;;-141.97;71.31;47546.00;4992832;28;20624;-80
2022/10/21 02:19:58;;;;;;;15.53;7.40;;;;;;;-141.97;70.67;47555.59;4992609;28;20167;-81
2022/10/21 02:22:25;;;;;;;14.27;8.17;;;;;;;-141.97;70.33;47526.75;4992722;28;20159;-81
2022/10/21 02:25:05;;;;;;;15.97;8.03;;;;;;;-141.97;70.77;47576.75;4992724;28;20229;-80
2022/10/21 02:27:31;;;;;;;14.03;8.43;;;;;;;-141.97;70.88;47524.84;4992463;28;20171;-80
2022/10/21 02:29:58;;;;;;;15.73;8.77;;;;;;;-141.97;70.16;47534.44;4992758;28;20165;-80
2022/10/21 02:32:59;;;;;;;15.83;8.33;;;;;;;-141.97;69.44;47584.44;4992347;28;20202;-79
2022/10/21 02:36:06;;;;;;;17.00;9.00;;;;;;;-141.97;69.43;47515.22;4894466;29;20201;-80
2022/10/21 02:38:39;;;;;;;14.07;8.03;;;;;;;-141.97;68.93;47697.84;4857304;29;20637;-80
2022/10/21 02:41:08;;;;;;;14.97;8.80;;;;;;;-141.97;68.18;47580.59;4857197;29;20282;-80
2022/10/21 02:44:01;;;;;;;16.80;8.97;;;;;;;-141.97;68.00;47578.66;4857143;29;20203;-80
2022/10/21 02:46:35;;;;;;;14.87;8.77;;;;;;;-141.97;68.50;47584.44;4850131;29;20192;-80
2022/10/21 02:49:01;;;;;;;17.40;9.13;;;;;;;-141.97;68.27;47547.91;4856985;29;20281;-80
2022/10/21 02:51:27;;;;;;;14.93;8.70;;;;;;;-141.97;68.97;47611.34;4857462;29;20350;-81
2022/10/21 02:53:57;;;;;;;16.50;9.23;;;;;;;-141.97;68.69;47572.91;4842247;29;20192;-78
2022/10/21 02:56:35;;;;;;;16.50;8.83;;;;;;;-141.97;69.28;47576.75;4857714;29;20243;-80
2022/10/21 02:59:00;;;;;;;16.40;9.23;;;;;;;-141.97;69.22;47499.84;4857147;29;20577;-80
2022/10/21 03:01:28;;;;;;;20.33;9.43;;;;;;;-141.97;69.58;47665.16;4857512;29;20168;-81
2022/10/21 03:03:58;;;;;;;16.90;8.80;;;;;;;-141.97;69.59;47580.59;4857427;29;20264;-79
2022/10/21 03:06:28;;;;;;;18.17;9.50;;;;;;;-141.97;70.21;47592.13;4857750;29;20720;-79
2022/10/21 03:08:59;;;;;;;16.93;9.20;;;;;;;-141.97;69.88;47546.00;4855663;29;20223;-79
2022/10/21 03:11:29;;;;;;;16.33;9.10;;;;;;;-141.97;69.93;47582.50;4911091;28;20194;-79
2022/10/21 03:14:00;;;;;;;16.67;9.07;;;;;;;-141.97;70.34;47557.53;4992730;28;20172;-79
2022/10/21 03:16:31;;;;;;;18.17;9.73;;;;;;;-141.97;70.35;47530.59;4992694;28;20222;-80
2022/10/21 03:19:00;;;;;;;18.20;9.50;;;;;;;-141.97;70.23;47576.75;4992537;28;20236;-80
2022/10/21 03:21:30;;;;;;;17.93;9.90;;;;;;;-141.97;70.56;47557.53;4992666;28;20624;-79
2022/10/21 03:24:01;;;;;;;22.97;10.47;;;;;;;-141.97;71.10;47557.53;4992643;28;20198;-80
2022/10/21 03:26:32;;;;;;;18.73;9.60;;;;;;;-141.97;71.35;47576.75;4992811;28;20171;-79
2022/10/21 03:29:01;;;;;;;18.97;9.63;;;;;;;-141.97;72.28;47553.69;4992400;28;20172;-79
2022/10/21 03:31:35;;;;;;;18.33;10.03;;;;;;;-141.97;72.52;47576.75;4992623;28;20170;-79
2022/10/21 03:34:02;;;;;;;21.63;11.97;;;;;;;-141.97;72.66;47534.44;4992211;28;20555;-81
2022/10/21 03:36:33;;;;;;;35.33;18.30;;;;;;;-141.97;72.65;47570.97;4992549;28;20624;-79
2022/10/21 03:39:02;;;;;;;25.30;13.90;;;;;;;-141.97;72.87;47603.66;4992425;28;20168;-80
2022/10/21 03:41:33;;;;;;;18.97;10.17;;;;;;;-141.97;73.30;47534.44;4992589;28;20640;-81
2022/10/21 03:44:03;;;;;;;19.23;10.43;;;;;;;-141.97;73.15;47524.84;4993389;28;20159;-80
2022/10/21 03:46:32;;;;;;;21.37;11.77;;;;;;;-141.97;72.73;47563.28;4996013;28;20160;-81
2022/10/21 03:49:03;;;;;;;22.90;11.53;;;;;;;-141.97;74.26;47559.44;4996210;28;20156;-80
2022/10/21 03:51:33;;;;;;;19.23;10.60;;;;;;;-141.97;73.88;47611.34;4995774;28;20163;-80
2022/10/21 03:54:03;;;;;;;21.80;10.83;;;;;;;-141.97;74.08;47540.22;4995602;28;20182;-81
2022/10/21 03:56:41;;;;;;;22.97;10.47;;;;;;;-141.97;74.50;47603.66;4995890;28;20614;-80
2022/10/21 03:59:06;;;;;;;21.63;10.73;;;;;;;-141.97;74.38;47605.56;4993774;28;20175;-83
2022/10/21 04:01:34;;;;;;;23.53;10.50;;;;;;;-141.97;74.02;47563.28;4995590;28;20163;-81
2022/10/21 04:04:04;;;;;;;20.37;10.30;;;;;;;-141.97;74.38;47607.50;4995468;28;20178;-81
2022/10/21 04:06:36;;;;;;;21.23;11.40;;;;;;;-141.97;74.98;47567.13;4995661;28;20155;-81
2022/10/21 04:09:13;;;;;;;21.43;10.90;;;;;;;-141.97;75.34;47511.38;4995593;28;20548;-82
2022/10/21 04:11:39;;;;;;;20.97;11.17;;;;;;;-141.97;75.50;47576.75;4977274;28;20698;-80
2022/10/21 04:14:06;;;;;;;24.23;11.87;;;;;;;-141.97;74.83;47580.59;4979294;28;20226;-80
2022/10/21 04:16:36;;;;;;;22.47;11.30;;;;;;;-141.97;74.86;47547.91;5009084;28;20249;-79
2022/10/21 04:19:07;;;;;;;20.23;11.67;;;;;;;-141.97;74.84;47584.44;5007756;28;20266;-80
2022/10/21 04:21:38;;;;;;;21.87;11.33;;;;;;;-141.97;74.34;47561.38;4992513;28;20183;-81
2022/10/21 04:24:07;;;;;;;20.77;11.80;;;;;;;-141.97;74.40;47570.97;4990194;28;20187;-80
2022/10/21 04:26:44;;;;;;;19.00;10.93;;;;;;;-141.97;75.07;47567.13;4974404;28;20636;-79
2022/10/21 04:29:10;;;;;;;24.63;12.33;;;;;;;-141.97;74.24;47565.22;4973959;28;20215;-81
2022/10/21 04:31:38;;;;;;;26.10;12.27;;;;;;;-141.97;74.44;47553.69;4980792;28;20210;-81
2022/10/21 04:34:10;;;;;;;25.43;12.73;;;;;;;-141.97;73.75;47611.34;4992265;28;20187;-79
2022/10/21 04:36:38;;;;;;;22.87;12.13;;;;;;;-141.97;73.37;47580.59;4992509;28;20183;-79
2022/10/21 04:39:09;;;;;;;23.50;12.37;;;;;;;-141.97;72.83;47492.16;4993238;28;20651;-79
2022/10/21 04:41:38;;;;;;;21.20;12.40;;;;;;;-141.97;72.42;47607.50;4976312;28;20278;-79
2022/10/21 04:44:10;;;;;;;26.93;12.47;;;;;;;-141.97;72.42;47597.88;4992136;28;21206;-78
2022/10/21 04:46:39;;;;;;;24.13;12.33;;;;;;;-141.97;72.14;47557.53;4992148;28;20652;-80
2022/10/21 04:49:10;;;;;;;24.30;13.37;;;;;;;-141.97;72.05;47588.28;4992481;28;20570;-79
2022/10/21 04:51:41;;;;;;;22.37;12.80;;;;;;;-141.97;71.76;47588.28;4992460;28;20274;-80
2022/10/21 04:54:12;;;;;;;26.97;13.57;;;;;;;-141.97;71.97;47592.13;4992511;28;20194;-80
2022/10/21 04:56:41;;;;;;;25.73;13.10;;;;;;;-141.97;71.91;47638.25;4991926;28;20202;-80
2022/10/21 04:59:10;;;;;;;23.60;12.97;;;;;;;-141.97;71.45;47526.75;4991704;28;20194;-80
2022/10/21 05:01:40;;;;;;;25.43;12.80;;;;;;;-141.97;71.63;47572.91;4991716;28;20179;-83
2022/10/21 05:04:10;;;;;;;24.07;12.67;;;;;;;-141.97;71.73;47588.28;4991079;28;20266;-80
2022/10/21 05:06:41;;;;;;;25.10;12.33;;;;;;;-141.97;72.54;47572.91;4992505;28;20175;-79
2022/10/21 05:09:11;;;;;;;24.33;12.90;;;;;;;-141.97;72.82;47549.84;4977031;28;20596;-80
2022/10/21 05:11:42;;;;;;;26.97;13.30;;;;;;;-141.97;72.77;47582.50;4972462;28;20817;-80
2022/10/21 05:14:11;;;;;;;23.77;13.37;;;;;;;-141.97;72.44;47578.66;4962729;28;20298;-80
2022/10/21 05:16:41;;;;;;;24.77;13.23;;;;;;;-141.97;72.09;47622.88;4972118;28;20188;-80
2022/10/21 05:19:12;;;;;;;23.40;13.07;;;;;;;-141.97;71.93;47599.81;4971903;28;20199;-79
2022/10/21 05:21:42;;;;;;;21.77;12.47;;;;;;;-141.97;70.91;47546.00;4972792;28;20183;-79
2022/10/21 05:24:15;;;;;;;21.87;12.87;;;;;;;-141.97;70.99;47580.59;4972710;28;20248;-80
2022/10/21 05:26:42;;;;;;;24.03;13.70;;;;;;;-141.97;70.10;47580.59;4954906;28;20207;-80
2022/10/21 05:29:13;;;;;;;27.23;13.77;;;;;;;-141.97;70.24;47603.66;4973170;28;20227;-80
2022/10/21 05:31:43;;;;;;;25.57;13.53;;;;;;;-141.97;69.63;47613.25;4972349;28;20326;-81
2022/10/21 05:34:14;;;;;;;23.40;12.90;;;;;;;-141.97;69.05;47572.91;4971888;28;20679;-80
2022/10/21 05:36:45;;;;;;;26.47;13.20;;;;;;;-141.97;68.67;47582.50;4991843;28;20217;-80
2022/10/21 05:39:14;;;;;;;29.07;13.07;;;;;;;-141.97;67.81;47538.28;4994379;28;20249;-80
2022/10/21 05:41:44;;;;;;;23.17;13.13;;;;;;;-141.97;67.85;47542.16;4975058;28;20186;-80
2022/10/21 05:44:17;;;;;;;30.70;13.60;;;;;;;-141.97;67.57;47561.38;4993828;28;20183;-80
2022/10/21 05:46:44;;;;;;;30.03;13.33;;;;;;;-141.97;67.55;47565.22;4994293;28;20242;-81
2022/10/21 05:49:14;;;;;;;35.83;20.03;;;;;;;-141.97;67.75;47530.59;4993124;28;20202;-79
2022/10/21 05:51:45;;;;;;;79.13;37.53;;;;;;;-141.97;67.76;47532.53;4991429;28;20187;-79
2022/10/21 05:54:18;;;;;;;72.23;32.67;;;;;;;-141.97;67.88;47561.38;4991692;28;20286;-79
2022/10/21 05:56:46;;;;;;;38.70;20.43;;;;;;;-141.97;66.92;47594.03;4990405;28;20198;-80
2022/10/21 05:59:15;;;;;;;43.97;25.13;;;;;;;-141.97;66.71;47569.06;4990803;28;20183;-80
2022/10/21 06:01:45;;;;;;;73.67;39.17;;;;;;;-141.97;66.56;47496.00;4990263;28;20741;-80
2022/10/21 06:04:16;;;;;;;167.43;66.20;;;;;;;-141.97;65.96;47588.28;4988260;28;20183;-79
2022/10/21 06:06:48;;;;;;;217.20;78.90;;;;;;;-141.97;65.41;47547.91;4990611;28;20266;-79
2022/10/21 06:09:16;;;;;;;300.90;90.13;;;;;;;-141.97;64.78;47555.59;4973934;28;20274;-80
2022/10/21 06:12:07;;;;;;;153.10;56.27;;;;;;;-141.97;63.87;47563.28;4970168;28;20609;-79
2022/10/21 06:14:35;;;;;;;65.23;32.97;;;;;;;-141.97;63.18;47572.91;4961744;28;20793;-79
2022/10/21 06:17:01;;;;;;;58.23;32.23;;;;;;;-141.97;63.28;47584.44;4970781;28;20617;-80
2022/10/21 06:19:26;;;;;;;56.27;28.47;;;;;;;-141.97;63.13;47592.13;4969910;28;20175;-80
2022/10/21 06:21:53;;;;;;;62.43;33.87;;;;;;;-141.97;62.97;47578.66;4979230;28;20183;-81
2022/10/21 06:24:19;;;;;;;64.50;34.33;;;;;;;-141.97;62.90;47549.84;4988522;28;20600;-80
2022/10/21 06:26:49;;;;;;;45.60;24.13;;;;;;;-141.97;62.96;47574.81;4980015;28;20271;-81
2022/10/21 06:29:18;;;;;;;32.30;16.03;;;;;;;-141.97;62.29;47580.59;4975562;28;20258;-81
2022/10/21 06:31:51;;;;;;;30.67;16.17;;;;;;;-141.97;62.04;47555.59;4947085;28;20265;-80
2022/10/21 06:34:19;;;;;;;46.83;22.87;;;;;;;-141.97;62.38;47553.69;4956385;28;20323;-81
2022/10/21 06:36:49;;;;;;;41.70;21.37;;;;;;;-141.97;62.26;47532.53;4978018;28;20188;-80
2022/10/21 06:39:19;;;;;;;38.73;19.17;;;;;;;-141.97;61.78;47580.59;4967636;28;20202;-80
2022/10/21 06:41:50;;;;;;;33.87;15.77;;;;;;;-141.97;63.25;47576.75;4967292;28;20188;-80
2022/10/21 06:44:21;;;;;;;45.07;22.40;;;;;;;-141.97;64.54;47592.13;4968016;28;20180;-79
2022/10/21 06:46:50;;;;;;;43.00;20.73;;;;;;;-141.97;65.12;47565.22;4967916;28;20187;-80
2022/10/21 06:49:21;;;;;;;31.80;15.27;;;;;;;-141.97;65.59;47561.38;4968980;28;20271;-80
2022/10/21 06:51:50;;;;;;;60.23;37.30;;;;;;;-141.97;66.66;47557.53;4969463;28;20851;-80
2022/10/21 06:54:21;;;;;;;54.83;29.60;;;;;;;-141.97;65.56;47557.53;4972116;28;20274;-80
2022/10/21 06:56:53;;;;;;;38.23;21.90;;;;;;;-141.97;63.86;47555.59;4969872;28;20195;-79
2022/10/21 06:59:21;;;;;;;48.87;30.57;;;;;;;-141.97;63.65;47580.59;4986761;28;20194;-80
2022/10/21 07:01:52;;;;;;;32.10;16.57;;;;;;;-141.97;63.39;47534.44;4988591;28;20738;-79
2022/10/21 07:04:22;;;;;;;58.23;33.87;;;;;;;-141.97;62.43;47557.53;4988833;28;20190;-79
2022/10/21 07:06:54;;;;;;;45.43;22.93;;;;;;;-141.97;60.87;47570.97;4988439;28;20258;-81
2022/10/21 07:09:25;;;;;;;41.83;24.03;;;;;;;-141.97;59.25;47586.34;4976518;28;20184;-83
2022/10/21 07:11:53;;;;;;;38.30;20.20;;;;;;;-141.97;59.57;47603.66;4987390;28;20229;-81
2022/10/21 07:14:22;;;;;;;25.40;16.63;;;;;;;-141.97;60.84;47507.53;4978689;28;20777;-81
2022/10/21 07:16:50;;;;;;;33.30;18.57;;;;;;;-141.97;60.74;47530.59;4987697;28;20210;-82
2022/10/21 07:19:24;;;;;;;32.53;18.17;;;;;;;-141.97;59.06;47576.75;4985433;28;20621;-82
2022/10/21 07:21:54;;;;;;;30.47;16.70;;;;;;;-141.97;58.04;47574.81;4961424;28;20755;-81
2022/10/21 07:24:22;;;;;;;29.47;15.97;;;;;;;-141.97;57.40;47521.00;4973150;28;20202;-82
2022/10/21 07:26:48;;;;;;;35.27;18.47;;;;;;;-141.97;56.79;47572.91;4956833;28;20270;-80
2022/10/21 07:29:16;;;;;;;39.13;21.47;;;;;;;-141.97;56.47;47607.50;4965416;28;20203;-81
2022/10/21 07:31:42;;;;;;;54.07;27.30;;;;;;;-141.97;55.79;47532.53;4966632;28;20196;-81
2022/10/21 07:34:09;;;;;;;42.20;22.67;;;;;;;-141.97;54.78;47532.53;4987574;28;20277;-81
2022/10/21 07:36:40;;;;;;;36.37;21.33;;;;;;;-141.97;53.38;47615.19;4988478;28;20187;-81
2022/10/21 07:39:12;;;;;;;32.97;18.87;;;;;;;-141.97;54.64;47557.53;4988073;28;20218;-81
2022/10/21 07:41:48;;;;;;;34.60;17.30;;;;;;;-141.97;53.20;47519.06;4988124;28;20207;-81
2022/10/21 07:44:14;;;;;;;34.73;17.13;;;;;;;-141.97;53.11;47565.22;4983048;28;20206;-80
2022/10/21 07:46:41;;;;;;;32.60;17.70;;;;;;;-141.97;52.72;47551.75;4968857;28;20220;-80
2022/10/21 07:49:07;;;;;;;28.87;16.20;;;;;;;-141.97;52.15;47538.28;4968511;28;20255;-80
2022/10/21 07:51:33;;;;;;;28.80;15.53;;;;;;;-141.97;51.32;47574.81;4968528;28;20188;-80
2022/10/21 07:54:00;;;;;;;25.57;14.03;;;;;;;-141.97;50.32;47524.84;4968584;28;20282;-81
2022/10/21 07:56:38;;;;;;;24.23;12.33;;;;;;;-141.97;49.19;47584.44;4968262;28;20191;-81
2022/10/21 07:59:04;;;;;;;26.70;13.40;;;;;;;-141.97;48.35;47540.22;4960980;28;20231;-80
2022/10/21 08:01:30;;;;;;;30.07;14.83;;;;;;;-141.97;48.46;47551.75;4960324;28;20193;-81
2022/10/21 08:03:57;;;;;;;25.13;11.83;;;;;;;-141.97;48.44;47563.28;4966324;28;20203;-81
2022/10/21 08:06:27;;;;;;;19.57;9.73;;;;;;;-141.97;48.53;47553.69;4971020;28;20187;-80
2022/10/21 08:09:00;;;;;;;18.77;9.47;;;;;;;-141.97;49.33;47546.00;4987806;28;20195;-80
2022/10/21 08:11:32;;;;;;;20.33;10.23;;;;;;;-141.97;49.92;47546.00;4989495;28;20361;-82
2022/10/21 08:13:58;;;;;;;17.47;10.80;;;;;;;-141.97;49.27;47653.63;4986495;28;20929;-82
2022/10/21 08:16:27;;;;;;;18.27;10.30;;;;;;;-141.97;48.76;47507.53;4992119;28;20197;-80
2022/10/21 08:18:59;;;;;;;21.27;9.90;;;;;;;-141.97;48.04;47534.44;4992177;28;20187;-80
2022/10/21 08:21:29;;;;;;;17.43;10.30;;;;;;;-141.97;48.67;47526.75;4973966;28;20686;-82
2022/10/21 08:24:00;;;;;;;17.80;9.03;;;;;;;-141.97;48.22;47549.84;4972078;28;20243;-81
2022/10/21 08:26:28;;;;;;;17.93;10.07;;;;;;;-141.97;49.05;47507.53;4971000;28;20194;-81
2022/10/21 08:29:01;;;;;;;17.00;9.83;;;;;;;-141.97;49.12;47567.13;4971565;28;20218;-81
2022/10/21 08:31:29;;;;;;;19.87;10.10;;;;;;;-141.97;48.61;47534.44;4971330;28;20203;-80
2022/10/21 08:33:58;;;;;;;25.37;11.00;;;;;;;-141.97;47.72;47549.84;4971724;28;20226;-80
2022/10/21 08:36:36;;;;;;;21.00;10.70;;;;;;;-141.97;46.56;47557.53;4970924;28;20661;-79
2022/10/21 08:39:01;;;;;;;19.37;10.67;;;;;;;-141.97;45.72;47561.38;4971582;28;20183;-80
2022/10/21 08:41:30;;;;;;;20.73;11.13;;;;;;;-141.97;45.00;47559.44;4971203;28;20266;-81
2022/10/21 08:44:38;;;;;;;36.57;20.13;;;;;;;-141.97;44.85;47530.59;4971561;28;20277;-80
2022/10/21 08:47:30;;;;;;;18.73;10.50;;;;;;;-141.97;45.03;47542.16;4892918;29;20274;-81
2022/10/21 08:50:05;;;;;;;50.47;25.80;;;;;;;-141.97;44.75;47557.53;4891712;29;20187;-80
2022/10/21 08:52:37;;;;;;;21.37;12.07;;;;;;;-141.97;44.30;47534.44;4889854;29;20696;-81
2022/10/21 08:55:11;;;;;;;18.57;11.33;;;;;;;-141.97;43.52;47549.84;4891266;29;20622;-81
2022/10/21 08:57:37;;;;;;;33.77;17.67;;;;;;;-141.97;44.38;47540.22;4879823;29;20262;-80
2022/10/21 09:00:13;;;;;;;21.03;12.13;;;;;;;-141.97;45.23;47524.84;4910673;29;20190;-81
2022/10/21 09:02:53;;;;;;;18.97;11.47;;;;;;;-141.97;44.11;47476.78;4891579;29;21033;-80
2022/10/21 09:05:44;;;;;;;23.57;13.50;;;;;;;-141.97;43.75;47511.38;4891112;29;20206;-80
2022/10/21 09:08:24;;;;;;;19.37;11.40;;;;;;;-141.97;43.15;47553.69;4892775;29;20686;-80
2022/10/21 09:11:08;;;;;;;25.83;12.67;;;;;;;-141.97;43.09;47507.53;4892462;29;20722;-80
2022/10/21 09:14:02;;;;;;;20.70;11.93;;;;;;;-141.97;42.38;47507.53;4891454;29;20241;-79
2022/10/21 09:16:33;;;;;;;18.10;11.87;;;;;;;-141.97;41.94;47486.41;4841169;29;20209;-80
2022/10/21 09:19:21;;;;;;;21.23;11.93;;;;;;;-141.97;41.40;47532.53;4839965;29;20253;-80
2022/10/21 09:21:55;;;;;;;20.67;11.50;;;;;;;-141.97;41.39;47546.00;4847760;29;20609;-81
2022/10/21 09:24:23;;;;;;;21.17;12.43;;;;;;;-141.97;42.05;47526.75;4901048;29;20745;-80
2022/10/21 09:26:51;;;;;;;19.37;12.57;;;;;;;-141.97;42.72;47526.75;4911211;29;20227;-80
2022/10/21 09:29:22;;;;;;;21.53;11.90;;;;;;;-141.97;43.51;47534.44;4910176;29;20734;-80
2022/10/21 09:31:48;;;;;;;23.40;12.67;;;;;;;-141.97;43.00;47515.22;4910676;29;20206;-80
2022/10/21 09:34:21;;;;;;;18.27;12.23;;;;;;;-141.97;42.56;47530.59;4911048;29;20281;-80
2022/10/21 09:36:54;;;;;;;21.80;12.53;;;;;;;-141.97;43.67;47542.16;4912719;29;20244;-80
2022/10/21 09:39:40;;;;;;;19.93;11.97;;;;;;;-141.97;43.71;47544.06;4912433;29;20249;-79
2022/10/21 09:42:11;;;;;;;22.43;12.77;;;;;;;-141.97;42.91;47507.53;4896809;29;20190;-81
2022/10/21 09:44:37;;;;;;;20.87;11.87;;;;;;;-141.97;41.57;47542.16;4900596;29;20286;-80
2022/10/21 09:47:17;;;;;;;25.77;12.80;;;;;;;-141.97;41.30;47530.59;4896822;29;20683;-81
2022/10/21 09:49:49;;;;;;;26.47;12.70;;;;;;;-141.97;41.01;47626.72;4897822;29;20182;-78
2022/10/21 09:52:17;;;;;;;79.43;49.17;;;;;;;-141.97;40.74;47526.75;4895696;29;20270;-78
2022/10/21 09:54:43;;;;;;;22.27;14.67;;;;;;;-141.97;40.73;47507.53;4955737;28;20572;-77
2022/10/21 09:57:38;;;;;;;22.40;13.63;;;;;;;-141.97;40.57;47513.31;4971500;28;20192;-81
2022/10/21 10:00:07;;;;;;;29.07;19.27;;;;;;;-141.97;40.32;47499.84;4983930;28;20187;-78
2022/10/21 10:02:44;;;;;;;21.97;13.57;;;;;;;-141.97;40.11;47503.69;4989017;28;20250;-78
2022/10/21 10:05:46;;;;;;;23.40;13.87;;;;;;;-141.97;39.25;47507.53;4987446;28;20191;-79
2022/10/21 10:08:39;;;;;;;22.60;13.67;;;;;;;-141.97;39.88;47522.91;4910979;29;20193;-78
2022/10/21 10:11:11;;;;;;;20.67;13.33;;;;;;;-141.97;40.97;47542.16;4895801;29;20194;-79
2022/10/21 10:13:53;;;;;;;24.40;14.33;;;;;;;-141.97;41.60;47524.84;4913217;29;20655;-80
2022/10/21 10:16:25;;;;;;;21.17;13.37;;;;;;;-141.97;41.67;47534.44;4914218;29;20220;-80
2022/10/21 10:18:53;;;;;;;23.13;14.53;;;;;;;-141.97;41.96;47526.75;4910601;29;20822;-79
2022/10/21 10:21:20;;;;;;;30.17;17.60;;;;;;;-141.97;40.87;47517.16;4912060;29;20213;-79
2022/10/21 10:23:52;;;;;;;24.90;14.10;;;;;;;-141.97;40.43;47538.28;4910125;29;20186;-79
2022/10/21 10:26:22;;;;;;;21.77;13.77;;;;;;;-141.97;40.35;47549.84;4907660;29;20202;-79
2022/10/21 10:28:54;;;;;;;23.13;13.70;;;;;;;-141.97;40.49;47513.31;4908141;29;20197;-79
2022/10/21 10:31:31;;;;;;;26.30;14.63;;;;;;;-141.97;40.23;47522.91;4908549;29;20197;-78
2022/10/21 10:34:02;;;;;;;21.10;13.40;;;;;;;-141.97;40.28;47715.13;4908183;29;20225;-78
2022/10/21 10:36:40;;;;;;;23.17;13.73;;;;;;;-141.97;40.23;47521.00;4907961;29;20301;-78
2022/10/21 10:39:29;;;;;;;24.57;13.80;;;;;;;-141.97;39.86;47511.38;4908915;29;20240;-79
2022/10/21 10:41:55;;;;;;;23.43;14.50;;;;;;;-141.97;39.65;47538.28;4907142;29;20675;-79
2022/10/21 10:44:33;;;;;;;23.50;13.93;;;;;;;-141.97;39.71;47532.53;4924214;29;20202;-79
2022/10/21 10:47:01;;;;;;;22.67;13.67;;;;;;;-141.97;39.13;47486.41;4953049;28;20645;-79
2022/10/21 10:49:40;;;;;;;24.90;13.47;;;;;;;-141.97;38.78;47513.31;4967415;28;20223;-78
2022/10/21 10:52:11;;;;;;;27.23;14.03;;;;;;;-141.97;39.19;47501.78;4968572;28;20710;-78
2022/10/21 10:54:43;;;;;;;28.63;13.43;;;;;;;-141.97;39.07;47484.47;4971188;28;20190;-78
2022/10/21 10:57:19;;;;;;;38.07;14.37;;;;;;;-141.97;38.90;47497.94;4988123;28;20285;-78
2022/10/21 11:00:18;;;;;;;20.67;12.93;;;;;;;-141.97;37.99;47496.00;4986154;28;20210;-79
2022/10/21 11:03:03;;;;;;;21.83;13.53;;;;;;;-141.97;38.96;47507.53;4971284;28;20752;-79
2022/10/21 11:05:36;;;;;;;21.87;13.07;;;;;;;-141.97;39.33;47526.75;4970470;28;20180;-78
2022/10/21 11:08:31;;;;;;;21.80;12.87;;;;;;;-141.97;39.41;47522.91;4971379;28;20199;-78
2022/10/21 11:11:03;;;;;;;22.77;13.50;;;;;;;-141.97;39.04;47547.91;4891207;29;20696;-78
2022/10/21 11:13:29;;;;;;;23.17;13.60;;;;;;;-141.97;39.19;47526.75;4891634;29;20814;-79
2022/10/21 11:16:19;;;;;;;22.67;13.00;;;;;;;-141.97;39.26;47519.06;4883501;29;20242;-79
2022/10/21 11:19:14;;;;;;;22.60;13.40;;;;;;;-141.97;39.22;47532.53;4891511;29;20205;-80
2022/10/21 11:22:12;;;;;;;24.23;13.87;;;;;;;-141.97;39.45;47499.84;4905187;29;20205;-79
2022/10/21 11:25:06;;;;;;;21.63;13.50;;;;;;;-141.97;39.07;47499.84;4910481;29;20190;-79
2022/10/21 11:27:34;;;;;;;21.50;13.20;;;;;;;-141.97;38.83;47526.75;4837507;29;20676;-79
2022/10/21 11:30:12;;;;;;;25.20;14.37;;;;;;;-141.97;39.22;47511.38;4852340;29;20215;-80